Time,TemperatureF,DewpointF,PressureIn,WindDirection,WindDirectionDegrees,WindSpeedMPH,WindSpeedGustMPH,Humidity,HourlyPrecipIn,Conditions,Clouds,dailyrainin,SoftwareType,DateUTC
2013-07-12 00:01:00,78.3,75.9,29.95,NNE,28,2.6,40.1,92,17.71,,,0.00,VWS V13.01,2013-07-12 04:01:00,
2013-07-12 00:06:00,78.1,75.7,29.95,East,80,3.4,40.1,92,17.71,,,0.00,VWS V13.01,2013-07-12 04:06:00,
2013-07-12 00:11:00,78.1,75.7,29.95,NE,44,2.1,40.1,92,17.71,,,0.00,VWS V13.01,2013-07-12 04:11:00,
2013-07-12 00:16:00,77.8,75.5,29.95,East,84,5.0,40.1,93,17.71,,,0.00,VWS V13.01,2013-07-12 04:16:00,
2013-07-12 00:21:00,78.0,75.8,29.95,ENE,72,4.2,40.1,93,17.71,,,0.00,VWS V13.01,2013-07-12 04:21:00,
2013-07-12 00:26:00,77.9,75.7,29.95,ENE,70,1.7,40.1,93,17.71,,,0.00,VWS V13.01,2013-07-12 04:26:00,
2013-07-12 00:31:00,77.9,75.7,29.95,ESE,120,4.0,40.1,93,17.71,,,0.00,VWS V13.01,2013-07-12 04:31:00,
2013-07-12 00:36:00,77.7,75.6,29.95,NE,51,0.9,40.1,93,17.71,,,0.00,VWS V13.01,2013-07-12 04:36:00,
2013-07-12 00:41:00,77.4,75.3,29.95,ENE,58,0.0,40.1,93,17.71,,,0.00,VWS V13.01,2013-07-12 04:41:00,
2013-07-12 00:46:00,77.2,75.0,29.95,ENE,70,2.1,40.1,93,17.71,,,0.00,VWS V13.01,2013-07-12 04:46:00,
2013-07-12 00:51:00,77.2,74.8,29.95,NNE,31,0.9,40.1,92,17.71,,,0.00,VWS V13.01,2013-07-12 04:51:00,
2013-07-12 00:56:00,77.2,74.8,29.95,ENE,73,0.0,40.1,92,17.71,,,0.00,VWS V13.01,2013-07-12 04:56:00,
2013-07-12 01:00:00,70.3,70.3,30.10,ESE,108,9.0,40.1,100,18.01,,,0.00,VWS V13.01,2013-07-12 05:00:00,
2013-07-12 01:01:00,77.0,74.4,29.95,ENE,72,5.8,40.1,92,17.71,,,0.00,VWS V13.01,2013-07-12 05:01:00,
2013-07-12 01:06:00,76.8,74.1,29.95,NNE,27,0.0,40.1,91,17.71,,,0.00,VWS V13.01,2013-07-12 05:06:00,
2013-07-12 01:11:00,76.9,74.1,29.95,NNE,27,0.0,40.1,91,17.71,,,0.00,VWS V13.01,2013-07-12 05:11:00,
2013-07-12 01:16:00,76.7,73.8,29.95,East,80,0.9,40.1,91,17.71,,,0.00,VWS V13.01,2013-07-12 05:16:00,
2013-07-12 01:21:00,76.9,73.7,29.95,NE,35,0.0,40.1,90,17.71,,,0.00,VWS V13.01,2013-07-12 05:21:00,
2013-07-12 01:26:00,76.8,73.6,29.96,NE,52,0.0,40.1,90,17.71,,,0.00,VWS V13.01,2013-07-12 05:26:00,
2013-07-12 01:31:00,76.8,73.3,29.96,NNE,15,0.0,40.1,89,17.71,,,0.00,VWS V13.01,2013-07-12 05:31:00,
2013-07-12 01:36:00,76.8,73.3,29.96,NE,44,0.0,40.1,89,17.71,,,0.00,VWS V13.01,2013-07-12 05:36:00,
2013-07-12 01:41:00,76.8,73.3,29.96,NE,55,4.3,40.1,89,17.71,,,0.00,VWS V13.01,2013-07-12 05:41:00,
2013-07-12 01:46:00,76.7,73.3,29.96,NE,42,0.0,40.1,89,17.71,,,0.00,VWS V13.01,2013-07-12 05:46:00,
2013-07-12 01:50:00,76.8,73.6,29.96,NE,46,0.0,40.1,90,17.71,,,0.00,VWS V13.01,2013-07-12 05:50:00,
2013-07-12 01:55:00,76.6,73.5,29.96,NE,45,0.0,40.1,90,17.71,,,0.00,VWS V13.01,2013-07-12 05:55:00,
2013-07-12 02:00:00,76.8,73.9,29.96,East,83,0.0,40.1,91,17.71,,,0.00,VWS V13.01,2013-07-12 06:00:00,
2013-07-12 02:05:00,76.5,73.8,29.96,East,83,0.0,40.1,91,17.71,,,0.00,VWS V13.01,2013-07-12 06:05:00,
2013-07-12 02:10:00,76.3,73.8,29.95,NNE,14,0.0,40.1,92,17.71,,,0.00,VWS V13.01,2013-07-12 06:10:00,
2013-07-12 02:15:00,76.3,73.8,29.96,ENE,72,1.9,40.1,92,17.71,,,0.00,VWS V13.01,2013-07-12 06:15:00,
2013-07-12 02:20:00,76.2,73.8,29.96,NNE,28,0.0,40.1,92,17.71,,,0.00,VWS V13.01,2013-07-12 06:20:00,
2013-07-12 02:25:00,76.2,73.8,29.96,NNE,28,0.0,40.1,92,17.71,,,0.00,VWS V13.01,2013-07-12 06:25:00,
2013-07-12 02:30:00,76.0,73.6,29.96,ENE,73,2.2,40.1,92,17.71,,,0.00,VWS V13.01,2013-07-12 06:30:00,
2013-07-12 02:35:00,75.9,73.3,29.95,ENE,58,0.0,40.1,92,17.71,,,0.00,VWS V13.01,2013-07-12 06:35:00,
2013-07-12 02:40:00,76.0,73.3,29.95,NE,52,0.0,40.1,91,17.71,,,0.00,VWS V13.01,2013-07-12 06:40:00,
2013-07-12 02:45:00,75.9,73.1,29.96,ENE,75,0.0,40.1,91,17.71,,,0.00,VWS V13.01,2013-07-12 06:45:00,
2013-07-12 02:50:00,75.7,72.8,29.96,ENE,76,1.1,40.1,91,17.71,,,0.00,VWS V13.01,2013-07-12 06:50:00,
2013-07-12 02:55:00,75.8,72.7,29.96,NE,49,0.0,40.1,90,17.71,,,0.00,VWS V13.01,2013-07-12 06:55:00,
2013-07-12 03:00:00,75.7,72.5,29.96,ENE,63,0.0,40.1,90,17.71,,,0.00,VWS V13.01,2013-07-12 07:00:00,
2013-07-12 03:05:00,75.3,71.9,29.96,North,10,0.0,40.1,89,17.71,,,0.00,VWS V13.01,2013-07-12 07:05:00,
2013-07-12 03:10:00,75.3,71.6,29.96,ENE,62,2.2,40.1,88,17.71,,,0.00,VWS V13.01,2013-07-12 07:10:00,
2013-07-12 03:15:00,75.6,71.7,29.96,East,80,0.0,40.1,88,17.71,,,0.00,VWS V13.01,2013-07-12 07:15:00,
2013-07-12 03:20:00,75.4,71.3,29.96,ENE,65,1.1,40.1,87,17.71,,,0.00,VWS V13.01,2013-07-12 07:20:00,
2013-07-12 03:25:00,75.7,71.5,29.96,NE,41,0.0,40.1,87,17.71,,,0.00,VWS V13.01,2013-07-12 07:25:00,
2013-07-12 03:30:00,75.5,71.3,29.97,NNE,32,1.4,40.1,87,17.71,,,0.00,VWS V13.01,2013-07-12 07:30:00,
2013-07-12 03:35:00,75.4,71.1,29.97,NE,34,0.0,40.1,86,17.71,,,0.00,VWS V13.01,2013-07-12 07:35:00,
2013-07-12 03:40:00,75.8,71.6,29.97,ENE,58,0.0,40.1,87,17.71,,,0.00,VWS V13.01,2013-07-12 07:40:00,
2013-07-12 03:45:00,75.8,71.6,29.96,ENE,58,0.0,40.1,87,17.71,,,0.00,VWS V13.01,2013-07-12 07:45:00,
2013-07-12 03:50:00,75.7,71.5,29.97,NE,38,0.0,40.1,87,17.71,,,0.00,VWS V13.01,2013-07-12 07:50:00,
2013-07-12 03:55:00,75.6,71.6,29.97,ESE,117,4.3,40.1,87,17.71,,,0.00,VWS V13.01,2013-07-12 07:55:00,
2013-07-12 04:00:00,75.6,71.6,29.97,East,94,2.6,40.1,87,17.71,,,0.00,VWS V13.01,2013-07-12 08:00:00,
2013-07-12 04:05:00,75.5,71.5,29.97,East,89,1.3,40.1,87,17.71,,,0.00,VWS V13.01,2013-07-12 08:05:00,
2013-07-12 04:10:00,75.2,71.0,29.97,NE,51,2.2,40.1,87,17.71,,,0.00,VWS V13.01,2013-07-12 08:10:00,
2013-07-12 04:15:00,75.2,70.9,29.97,NE,37,0.0,40.1,87,17.71,,,0.00,VWS V13.01,2013-07-12 08:15:00,
2013-07-12 04:20:00,75.2,70.9,29.97,NNE,18,0.5,40.1,86,17.71,,,0.00,VWS V13.01,2013-07-12 08:20:00,
2013-07-12 04:25:00,75.2,70.8,29.97,East,96,0.6,40.1,86,17.71,,,0.00,VWS V13.01,2013-07-12 08:25:00,
2013-07-12 04:30:00,75.2,70.8,29.97,ENE,60,4.0,40.1,86,17.71,,,0.00,VWS V13.01,2013-07-12 08:30:00,
2013-07-12 04:35:00,75.2,70.9,29.97,NE,56,0.0,40.1,86,17.71,,,0.00,VWS V13.01,2013-07-12 08:35:00,
2013-07-12 04:40:00,75.4,71.1,29.97,NNE,25,0.0,40.1,87,17.71,,,0.00,VWS V13.01,2013-07-12 08:40:00,
2013-07-12 04:45:00,75.4,71.2,29.98,ENE,75,3.4,40.1,87,17.71,,,0.00,VWS V13.01,2013-07-12 08:45:00,
2013-07-12 04:50:00,75.3,71.2,29.98,NE,37,0.0,40.1,87,17.71,,,0.00,VWS V13.01,2013-07-12 08:50:00,
2013-07-12 04:55:00,75.4,71.4,29.98,ENE,72,1.4,40.1,87,17.71,,,0.00,VWS V13.01,2013-07-12 08:55:00,
2013-07-12 05:00:00,75.7,71.8,29.97,NNE,17,0.0,40.1,88,17.71,,,0.00,VWS V13.01,2013-07-12 09:00:00,
2013-07-12 05:05:00,75.3,71.5,29.97,NE,49,1.6,40.1,88,17.71,,,0.00,VWS V13.01,2013-07-12 09:05:00,
2013-07-12 05:10:00,75.0,71.2,29.97,ENE,62,0.9,40.1,88,17.71,,,0.00,VWS V13.01,2013-07-12 09:10:00,
2013-07-12 05:15:00,75.1,71.4,29.97,ENE,76,2.3,40.1,88,17.71,,,0.00,VWS V13.01,2013-07-12 09:15:00,
2013-07-12 05:20:00,75.0,71.2,29.97,East,93,4.0,40.1,88,17.71,,,0.00,VWS V13.01,2013-07-12 09:20:00,
2013-07-12 05:25:00,74.8,71.1,29.98,ENE,69,3.2,40.1,88,17.71,,,0.00,VWS V13.01,2013-07-12 09:25:00,
2013-07-12 05:30:00,74.7,70.9,29.98,ENE,70,6.5,40.1,88,17.71,,,0.00,VWS V13.01,2013-07-12 09:30:00,
2013-07-12 05:35:00,74.8,71.1,29.98,NNE,13,2.1,40.1,88,17.71,,,0.00,VWS V13.01,2013-07-12 09:35:00,
2013-07-12 05:40:00,74.9,71.3,29.99,ENE,62,4.3,40.1,88,17.71,,,0.00,VWS V13.01,2013-07-12 09:40:00,
2013-07-12 05:45:00,74.7,71.2,29.99,NE,41,2.0,40.1,89,17.71,,,0.00,VWS V13.01,2013-07-12 09:45:00,
2013-07-12 05:50:00,74.7,71.4,29.99,East,87,2.8,40.1,90,17.71,,,0.00,VWS V13.01,2013-07-12 09:50:00,
2013-07-12 05:55:00,74.4,71.2,30.00,NE,41,2.5,40.1,90,17.71,,,0.00,VWS V13.01,2013-07-12 09:55:00,
2013-07-12 06:00:00,74.5,71.4,30.00,ESE,122,0.0,40.1,90,17.71,,,0.00,VWS V13.01,2013-07-12 10:00:00,
2013-07-12 06:05:00,74.5,71.5,30.00,ENE,75,4.1,40.1,90,17.71,,,0.00,VWS V13.01,2013-07-12 10:05:00,
2013-07-12 06:10:00,74.4,71.5,30.00,East,91,1.8,40.1,91,17.71,,,0.00,VWS V13.01,2013-07-12 10:10:00,
2013-07-12 06:15:00,74.3,71.5,30.00,ENE,72,2.8,40.1,91,17.71,,,0.00,VWS V13.01,2013-07-12 10:15:00,
2013-07-12 06:20:00,74.2,71.5,30.00,NE,48,0.0,40.1,91,17.71,,,0.00,VWS V13.01,2013-07-12 10:20:00,
2013-07-12 06:25:00,74.3,71.7,30.00,ENE,69,1.4,40.1,92,17.71,,,0.00,VWS V13.01,2013-07-12 10:25:00,
2013-07-12 06:30:00,74.2,71.6,30.01,NE,35,3.4,40.1,92,17.71,,,0.00,VWS V13.01,2013-07-12 10:30:00,
2013-07-12 06:35:00,74.2,71.7,30.01,NE,44,2.1,40.1,92,17.71,,,0.00,VWS V13.01,2013-07-12 10:35:00,
2013-07-12 06:40:00,74.2,71.7,30.01,ENE,69,6.8,40.1,92,17.71,,,0.00,VWS V13.01,2013-07-12 10:40:00,
2013-07-12 06:45:00,74.4,72.0,30.01,East,80,0.0,40.1,92,17.71,,,0.00,VWS V13.01,2013-07-12 10:45:00,
2013-07-12 06:50:00,74.1,71.8,30.01,ESE,117,6.2,40.1,92,17.71,,,0.00,VWS V13.01,2013-07-12 10:50:00,
2013-07-12 06:55:00,74.4,72.0,30.01,ESE,112,1.4,40.1,92,17.71,,,0.00,VWS V13.01,2013-07-12 10:55:00,
2013-07-12 07:00:00,74.2,71.9,30.01,ENE,77,4.1,40.1,92,17.71,,,0.00,VWS V13.01,2013-07-12 11:00:00,
2013-07-12 07:05:00,74.3,72.0,30.01,East,80,2.9,40.1,93,17.71,,,0.00,VWS V13.01,2013-07-12 11:05:00,
2013-07-12 07:10:00,74.4,72.1,30.01,ENE,59,3.0,40.1,93,17.71,,,0.00,VWS V13.01,2013-07-12 11:10:00,
2013-07-12 07:15:00,74.5,72.2,30.01,NNE,24,4.7,40.1,92,17.71,,,0.00,VWS V13.01,2013-07-12 11:15:00,
2013-07-12 07:20:00,74.8,72.4,30.01,ENE,70,2.2,40.1,92,17.71,,,0.00,VWS V13.01,2013-07-12 11:20:00,
2013-07-12 07:25:00,74.8,72.4,30.01,East,101,4.2,40.1,92,17.71,,,0.00,VWS V13.01,2013-07-12 11:25:00,
2013-07-12 07:30:00,74.8,72.4,30.01,ENE,77,4.0,40.1,92,17.71,,,0.00,VWS V13.01,2013-07-12 11:30:00,
2013-07-12 07:35:00,75.3,72.8,30.01,ESE,105,4.3,40.1,92,17.71,,,0.00,VWS V13.01,2013-07-12 11:35:00,
2013-07-12 07:40:00,75.2,72.6,30.01,NE,35,4.8,40.1,92,17.71,,,0.00,VWS V13.01,2013-07-12 11:40:00,
2013-07-12 07:45:00,75.5,72.8,30.01,East,97,6.5,40.1,91,17.71,,,0.00,VWS V13.01,2013-07-12 11:45:00,
2013-07-12 07:50:00,76.2,73.3,30.01,ESE,111,6.1,40.1,91,17.71,,,0.00,VWS V13.01,2013-07-12 11:50:00,
2013-07-12 07:55:00,76.1,72.8,30.01,NE,48,5.5,40.1,90,17.71,,,0.00,VWS V13.01,2013-07-12 11:55:00,
2013-07-12 07:59:00,76.3,72.9,30.02,East,93,2.9,40.1,89,17.71,,,0.00,VWS V13.01,2013-07-12 11:59:00,
2013-07-12 08:04:00,76.0,72.7,30.02,East,97,7.0,40.1,89,17.71,,,0.00,VWS V13.01,2013-07-12 12:04:00,
2013-07-12 08:09:00,76.0,72.8,30.02,East,94,7.8,40.1,90,17.71,,,0.00,VWS V13.01,2013-07-12 12:09:00,
2013-07-12 08:14:00,75.9,72.9,30.02,NE,42,9.5,40.1,90,17.71,,,0.00,VWS V13.01,2013-07-12 12:14:00,
2013-07-12 08:19:00,75.7,72.7,30.02,East,83,5.2,40.1,90,17.71,,,0.00,VWS V13.01,2013-07-12 12:19:00,
2013-07-12 08:24:00,75.5,72.7,30.02,SE,139,4.4,40.1,91,17.71,,,0.00,VWS V13.01,2013-07-12 12:24:00,
2013-07-12 08:29:00,75.3,72.7,30.02,East,80,8.4,40.1,92,17.71,,,0.00,VWS V13.01,2013-07-12 12:29:00,
2013-07-12 08:34:00,75.4,72.9,30.03,NE,37,4.5,40.1,92,17.71,,,0.00,VWS V13.01,2013-07-12 12:34:00,
2013-07-12 08:39:00,75.2,72.7,30.03,East,86,2.5,40.1,92,17.71,,,0.00,VWS V13.01,2013-07-12 12:39:00,
2013-07-12 08:44:00,75.3,72.7,30.03,East,79,1.7,40.1,92,17.71,,,0.00,VWS V13.01,2013-07-12 12:44:00,
2013-07-12 08:49:00,75.3,72.8,30.03,NNE,28,1.2,40.1,92,17.71,,,0.00,VWS V13.01,2013-07-12 12:49:00,
2013-07-12 08:54:00,75.3,73.2,30.03,ENE,77,5.3,40.1,93,17.71,,,0.00,VWS V13.01,2013-07-12 12:54:00,
2013-07-12 08:59:00,75.1,73.0,30.04,NE,49,2.8,40.1,93,17.71,,,0.00,VWS V13.01,2013-07-12 12:59:00,
2013-07-12 09:04:00,75.4,73.4,30.04,East,83,2.9,40.1,94,17.71,,,0.00,VWS V13.01,2013-07-12 13:04:00,
2013-07-12 09:09:00,75.7,73.8,30.04,East,94,2.4,40.1,94,17.71,,,0.00,VWS V13.01,2013-07-12 13:09:00,
2013-07-12 09:14:00,75.5,73.6,30.03,ESE,110,3.0,40.1,94,17.71,,,0.00,VWS V13.01,2013-07-12 13:14:00,
2013-07-12 09:19:00,75.7,73.8,30.04,East,98,2.9,40.1,94,17.71,,,0.00,VWS V13.01,2013-07-12 13:19:00,
2013-07-12 09:24:00,75.5,73.7,30.04,SW,224,0.9,40.1,94,17.71,,,0.00,VWS V13.01,2013-07-12 13:24:00,
2013-07-12 09:29:00,75.3,73.7,30.04,SE,127,3.4,40.1,95,17.71,,,0.00,VWS V13.01,2013-07-12 13:29:00,
2013-07-12 09:34:00,75.1,73.6,30.03,ENE,65,3.6,40.1,95,17.71,,,0.00,VWS V13.01,2013-07-12 13:34:00,
2013-07-12 09:39:00,75.1,73.7,30.03,SE,139,0.0,40.1,95,17.71,,,0.00,VWS V13.01,2013-07-12 13:39:00,
2013-07-12 09:44:00,75.1,73.7,30.04,East,91,6.5,40.1,95,17.71,,,0.00,VWS V13.01,2013-07-12 13:44:00,
2013-07-12 09:49:00,75.0,73.7,30.04,East,97,7.0,40.1,96,17.71,,,0.00,VWS V13.01,2013-07-12 13:49:00,
2013-07-12 09:54:00,74.9,73.6,30.04,ENE,75,4.2,40.1,96,17.71,,,0.00,VWS V13.01,2013-07-12 13:54:00,
2013-07-12 09:59:00,74.9,73.6,30.05,East,98,4.1,40.1,96,17.71,,,0.00,VWS V13.01,2013-07-12 13:59:00,
2013-07-12 10:04:00,74.9,73.6,30.05,East,87,1.6,40.1,96,17.71,,,0.00,VWS V13.01,2013-07-12 14:04:00,
2013-07-12 10:09:00,75.0,73.7,30.05,ENE,60,7.8,40.1,96,17.71,,,0.00,VWS V13.01,2013-07-12 14:09:00,
2013-07-12 10:14:00,75.2,73.9,30.05,NE,42,5.5,40.1,96,17.71,,,0.00,VWS V13.01,2013-07-12 14:14:00,
2013-07-12 10:19:00,75.2,73.9,30.05,East,98,6.3,40.1,96,17.71,,,0.00,VWS V13.01,2013-07-12 14:19:00,
2013-07-12 10:24:00,75.0,73.8,30.05,East,96,3.3,40.1,96,17.71,,,0.00,VWS V13.01,2013-07-12 14:24:00,
2013-07-12 10:29:00,74.8,73.6,30.05,East,94,4.8,40.1,96,17.71,,,0.00,VWS V13.01,2013-07-12 14:29:00,
2013-07-12 10:34:00,74.7,73.5,30.05,East,96,1.8,40.1,96,17.71,,,0.00,VWS V13.01,2013-07-12 14:34:00,
2013-07-12 10:39:00,75.1,73.9,30.05,NE,52,0.0,40.1,96,17.71,,,0.00,VWS V13.01,2013-07-12 14:39:00,
2013-07-12 10:44:00,75.1,73.8,30.05,East,91,3.3,40.1,96,17.71,,,0.00,VWS V13.01,2013-07-12 14:44:00,
2013-07-12 10:49:00,75.1,73.8,30.05,ENE,75,1.4,40.1,96,17.71,,,0.00,VWS V13.01,2013-07-12 14:49:00,
2013-07-12 10:54:00,75.3,74.0,30.05,ESE,117,4.7,40.1,96,17.71,,,0.00,VWS V13.01,2013-07-12 14:54:00,
2013-07-12 10:59:00,75.5,74.2,30.05,ESE,114,4.5,40.1,96,17.71,,,0.00,VWS V13.01,2013-07-12 14:59:00,
2013-07-12 11:04:00,75.3,73.9,30.05,ENE,69,3.9,40.1,96,17.71,,,0.00,VWS V13.01,2013-07-12 15:04:00,
2013-07-12 11:09:00,75.3,74.0,30.05,ENE,75,3.7,40.1,96,17.71,,,0.00,VWS V13.01,2013-07-12 15:09:00,
2013-07-12 11:14:00,75.4,74.2,30.05,NNE,27,0.0,40.1,96,17.71,,,0.00,VWS V13.01,2013-07-12 15:14:00,
2013-07-12 11:19:00,75.7,74.5,30.05,ESE,108,2.0,40.1,96,17.71,,,0.00,VWS V13.01,2013-07-12 15:19:00,
2013-07-12 11:24:00,75.6,74.4,30.05,East,91,8.0,40.1,96,17.71,,,0.00,VWS V13.01,2013-07-12 15:24:00,
2013-07-12 11:29:00,75.4,74.2,30.05,ENE,70,3.8,40.1,96,17.71,,,0.00,VWS V13.01,2013-07-12 15:29:00,
2013-07-12 11:34:00,75.3,74.2,30.05,ESE,122,4.7,40.1,96,17.71,,,0.00,VWS V13.01,2013-07-12 15:34:00,
2013-07-12 11:39:00,75.4,74.3,30.05,South,172,5.3,40.1,96,17.71,,,0.00,VWS V13.01,2013-07-12 15:39:00,
2013-07-12 11:44:00,75.5,74.4,30.05,NE,37,2.0,40.1,96,17.71,,,0.00,VWS V13.01,2013-07-12 15:44:00,
2013-07-12 11:49:00,75.5,74.4,30.05,ESE,122,5.2,40.1,96,17.71,,,0.00,VWS V13.01,2013-07-12 15:49:00,
2013-07-12 11:54:00,75.4,74.3,30.05,SE,139,4.3,40.1,96,17.71,,,0.00,VWS V13.01,2013-07-12 15:54:00,
2013-07-12 11:59:00,75.3,74.3,30.05,ENE,63,2.5,40.1,97,17.71,,,0.00,VWS V13.01,2013-07-12 15:59:00,
2013-07-12 12:04:00,75.2,74.3,30.05,ESE,108,2.9,40.1,97,17.71,,,0.00,VWS V13.01,2013-07-12 16:04:00,
2013-07-12 12:09:00,75.0,74.1,30.05,SE,141,3.5,40.1,97,17.71,,,0.00,VWS V13.01,2013-07-12 16:09:00,
2013-07-12 12:14:00,75.1,74.3,30.05,SE,142,4.6,40.1,97,17.71,,,0.00,VWS V13.01,2013-07-12 16:14:00,
2013-07-12 12:19:00,74.9,74.2,30.05,East,90,5.7,40.1,98,17.71,,,0.00,VWS V13.01,2013-07-12 16:19:00,
2013-07-12 12:24:00,74.8,74.1,30.05,East,83,2.0,40.1,98,17.71,,,0.00,VWS V13.01,2013-07-12 16:24:00,
2013-07-12 12:29:00,74.7,74.1,30.06,East,84,3.4,40.1,98,17.71,,,0.00,VWS V13.01,2013-07-12 16:29:00,
2013-07-12 12:34:00,74.6,74.0,30.06,SE,138,3.9,40.1,98,17.71,,,0.00,VWS V13.01,2013-07-12 16:34:00,
2013-07-12 12:39:00,74.7,74.2,30.06,East,87,3.9,40.1,98,17.71,,,0.00,VWS V13.01,2013-07-12 16:39:00,
2013-07-12 12:44:00,74.6,74.2,30.06,NNE,27,0.0,40.1,98,17.71,,,0.00,VWS V13.01,2013-07-12 16:44:00,
2013-07-12 12:49:00,74.5,74.1,30.06,ESE,111,4.3,40.1,99,17.71,,,0.00,VWS V13.01,2013-07-12 16:49:00,
2013-07-12 12:54:00,74.2,73.9,30.06,ENE,59,1.9,40.1,99,17.71,,,0.00,VWS V13.01,2013-07-12 16:54:00,
2013-07-12 12:59:00,74.2,73.9,30.06,SE,127,3.4,40.1,99,17.71,,,0.00,VWS V13.01,2013-07-12 16:59:00,
2013-07-12 13:04:00,74.2,73.9,30.06,SE,139,4.1,40.1,99,17.71,,,0.00,VWS V13.01,2013-07-12 17:04:00,
2013-07-12 13:09:00,74.1,73.9,30.06,SE,145,3.6,40.1,99,17.71,,,0.00,VWS V13.01,2013-07-12 17:09:00,
2013-07-12 13:14:00,73.8,73.7,30.06,SSE,163,3.4,40.1,100,17.71,,,0.00,VWS V13.01,2013-07-12 17:14:00,
2013-07-12 13:20:00,74.0,73.9,30.06,ESE,112,2.9,40.1,100,17.71,,,0.00,VWS V13.01,2013-07-12 17:20:00,
2013-07-12 13:25:00,73.9,73.9,30.06,ENE,66,3.2,40.1,100,17.71,,,0.00,VWS V13.01,2013-07-12 17:25:00,
2013-07-12 13:30:00,73.9,73.9,30.06,East,83,3.5,40.1,100,17.71,,,0.00,VWS V13.01,2013-07-12 17:30:00,
2013-07-12 13:36:00,73.9,73.9,30.06,SE,134,2.2,40.1,100,17.71,,,0.00,VWS V13.01,2013-07-12 17:36:00,
2013-07-12 13:41:00,73.4,73.4,30.06,ESE,111,5.0,40.1,100,17.71,,,0.00,VWS V13.01,2013-07-12 17:41:00,
2013-07-12 13:47:00,73.6,73.6,30.05,ENE,68,2.9,40.1,100,17.71,,,0.00,VWS V13.01,2013-07-12 17:47:00,
2013-07-12 13:52:00,73.5,73.5,30.05,East,93,4.7,40.1,100,17.71,,,0.00,VWS V13.01,2013-07-12 17:52:00,
2013-07-12 13:57:00,73.2,73.2,30.05,South,179,5.7,40.1,100,17.71,,,0.00,VWS V13.01,2013-07-12 17:57:00,
2013-07-12 14:02:00,73.2,73.2,30.05,East,89,2.4,40.1,100,17.71,,,0.00,VWS V13.01,2013-07-12 18:02:00,
2013-07-12 14:08:00,73.1,73.1,30.05,ESE,118,6.3,40.1,100,17.71,,,0.00,VWS V13.01,2013-07-12 18:08:00,
2013-07-12 14:13:00,72.9,72.9,30.05,SE,132,2.9,40.1,100,17.71,,,0.00,VWS V13.01,2013-07-12 18:13:00,
2013-07-12 14:18:00,73.0,73.0,30.05,ESE,117,6.4,40.1,100,17.71,,,0.00,VWS V13.01,2013-07-12 18:18:00,
2013-07-12 14:23:00,73.1,73.1,30.05,ESE,117,3.4,40.1,100,17.71,,,0.00,VWS V13.01,2013-07-12 18:23:00,
2013-07-12 14:29:00,73.0,73.0,30.05,ESE,111,4.6,40.1,100,17.71,,,0.00,VWS V13.01,2013-07-12 18:29:00,
2013-07-12 14:34:00,73.2,73.2,30.05,East,86,2.2,40.1,100,17.71,,,0.00,VWS V13.01,2013-07-12 18:34:00,
2013-07-12 14:39:00,73.0,73.0,30.05,East,80,7.2,40.1,100,17.71,,,0.00,VWS V13.01,2013-07-12 18:39:00,
2013-07-12 14:44:00,72.9,72.9,30.05,East,87,5.2,40.1,100,17.71,,,0.00,VWS V13.01,2013-07-12 18:44:00,
2013-07-12 14:49:00,72.7,72.7,30.05,ESE,110,6.2,40.1,100,17.71,,,0.00,VWS V13.01,2013-07-12 18:49:00,
2013-07-12 14:55:00,72.8,72.8,30.05,East,101,8.5,40.1,100,17.71,,,0.00,VWS V13.01,2013-07-12 18:55:00,
2013-07-12 15:00:00,72.4,72.4,30.05,ESE,120,1.8,40.1,100,17.71,,,0.00,VWS V13.01,2013-07-12 19:00:00,
2013-07-12 15:06:00,72.5,72.5,30.05,East,96,5.2,40.1,100,17.71,,,0.00,VWS V13.01,2013-07-12 19:06:00,
2013-07-12 15:11:00,72.5,72.5,30.05,South,170,5.0,40.1,100,17.71,,,0.00,VWS V13.01,2013-07-12 19:11:00,
2013-07-12 15:16:00,72.2,72.2,30.05,ESE,114,3.3,40.1,100,17.72,,,0.01,VWS V13.01,2013-07-12 19:16:00,
2013-07-12 15:21:00,72.2,72.2,30.05,NE,37,1.7,40.1,100,17.74,,,0.03,VWS V13.01,2013-07-12 19:21:00,
2013-07-12 15:26:00,72.3,72.3,30.05,East,98,5.3,40.1,100,17.75,,,0.04,VWS V13.01,2013-07-12 19:26:00,
2013-07-12 15:32:00,71.9,71.9,30.05,South,188,3.2,40.1,100,17.77,,,0.06,VWS V13.01,2013-07-12 19:32:00,
2013-07-12 15:39:00,71.5,71.5,30.05,SE,138,8.0,40.1,100,17.82,,,0.12,VWS V13.01,2013-07-12 19:39:00,
2013-07-12 15:44:00,71.2,71.2,30.05,SSE,150,5.0,40.1,100,17.85,,,0.14,VWS V13.01,2013-07-12 19:44:00,
2013-07-12 15:50:00,71.2,71.2,30.05,SE,132,3.0,40.1,100,17.86,,,0.15,VWS V13.01,2013-07-12 19:50:00,
2013-07-12 15:55:00,70.7,70.7,30.05,SE,132,3.3,40.1,100,17.86,,,0.15,VWS V13.01,2013-07-12 19:55:00,
2013-07-12 16:00:00,70.5,70.5,30.05,East,98,9.8,40.1,100,17.86,,,0.15,VWS V13.01,2013-07-12 20:00:00,
2013-07-12 16:05:00,70.5,70.5,30.05,ESE,108,3.9,40.1,100,17.86,,,0.15,VWS V13.01,2013-07-12 20:05:00,
2013-07-12 16:10:00,70.3,70.3,30.05,SE,129,4.5,40.1,100,17.87,,,0.16,VWS V13.01,2013-07-12 20:10:00,
2013-07-12 16:15:00,70.5,70.5,30.05,SSE,149,5.9,40.1,100,17.87,,,0.16,VWS V13.01,2013-07-12 20:15:00,
2013-07-12 16:20:00,70.5,70.5,30.05,SE,127,8.3,40.1,100,17.87,,,0.16,VWS V13.01,2013-07-12 20:20:00,
2013-07-12 16:26:00,70.5,70.5,30.05,SSE,167,8.6,40.1,100,17.87,,,0.16,VWS V13.01,2013-07-12 20:26:00,
2013-07-12 16:32:00,70.5,70.5,30.05,SE,124,2.7,40.1,100,17.88,,,0.17,VWS V13.01,2013-07-12 20:32:00,
2013-07-12 16:37:00,70.2,70.2,30.05,SE,139,7.6,40.1,100,17.88,,,0.17,VWS V13.01,2013-07-12 20:37:00,
2013-07-12 16:42:00,70.6,70.6,30.06,SSE,148,1.8,40.1,100,17.88,,,0.17,VWS V13.01,2013-07-12 20:42:00,
2013-07-12 16:47:00,70.4,70.4,30.06,SSE,163,9.6,40.1,100,17.88,,,0.17,VWS V13.01,2013-07-12 20:47:00,
2013-07-12 16:52:00,70.8,70.8,30.06,East,87,4.3,40.1,100,17.88,,,0.17,VWS V13.01,2013-07-12 20:52:00,
2013-07-12 16:57:00,70.6,70.6,30.06,SE,138,8.0,40.1,100,17.88,,,0.17,VWS V13.01,2013-07-12 20:57:00,
2013-07-12 17:02:00,70.5,70.5,30.06,SSE,150,6.6,40.1,100,17.88,,,0.17,VWS V13.01,2013-07-12 21:02:00,
2013-07-12 17:07:00,70.4,70.4,30.06,ESE,107,7.6,40.1,100,17.88,,,0.17,VWS V13.01,2013-07-12 21:07:00,
2013-07-12 17:13:00,70.5,70.5,30.06,East,87,3.9,40.1,100,17.88,,,0.17,VWS V13.01,2013-07-12 21:13:00,
2013-07-12 17:18:00,70.5,70.5,30.06,NNE,32,3.4,40.1,100,17.88,,,0.17,VWS V13.01,2013-07-12 21:18:00,
2013-07-12 17:23:00,70.4,70.4,30.06,SE,135,9.1,40.1,100,17.88,,,0.17,VWS V13.01,2013-07-12 21:23:00,
2013-07-12 17:28:00,70.1,70.1,30.06,ESE,115,4.8,40.1,100,17.88,,,0.17,VWS V13.01,2013-07-12 21:28:00,
2013-07-12 17:35:00,70.0,70.0,30.06,East,86,0.6,40.1,100,17.88,,,0.17,VWS V13.01,2013-07-12 21:35:00,
2013-07-12 17:41:00,70.1,70.1,30.06,South,179,9.1,40.1,100,17.88,,,0.17,VWS V13.01,2013-07-12 21:41:00,
2013-07-12 17:46:00,69.9,69.9,30.07,South,174,3.4,40.1,100,17.89,,,0.18,VWS V13.01,2013-07-12 21:46:00,
2013-07-12 17:51:00,70.1,70.1,30.07,ESE,103,5.5,40.1,100,17.89,,,0.18,VWS V13.01,2013-07-12 21:51:00,
2013-07-12 17:56:00,70.1,70.1,30.06,ESE,103,2.0,40.1,100,17.89,,,0.18,VWS V13.01,2013-07-12 21:56:00,
2013-07-12 18:01:00,70.0,70.0,30.06,SE,143,7.9,40.1,100,17.89,,,0.18,VWS V13.01,2013-07-12 22:01:00,
2013-07-12 18:06:00,69.8,69.8,30.07,East,100,6.3,40.1,100,17.89,,,0.18,VWS V13.01,2013-07-12 22:06:00,
2013-07-12 18:12:00,69.9,69.9,30.07,ESE,118,5.8,40.1,100,17.89,,,0.18,VWS V13.01,2013-07-12 22:12:00,
2013-07-12 18:17:00,69.9,69.9,30.07,East,101,6.0,40.1,100,17.89,,,0.18,VWS V13.01,2013-07-12 22:17:00,
2013-07-12 18:22:00,69.8,69.8,30.07,SSE,159,9.1,40.1,100,17.91,,,0.20,VWS V13.01,2013-07-12 22:22:00,
2013-07-12 18:28:00,70.0,70.0,30.07,SE,129,4.0,40.1,100,17.93,,,0.23,VWS V13.01,2013-07-12 22:28:00,
2013-07-12 18:33:00,69.6,69.6,30.07,SSE,150,0.8,40.1,100,17.95,,,0.25,VWS V13.01,2013-07-12 22:33:00,
2013-07-12 18:38:00,69.7,69.7,30.08,ENE,75,13.5,40.1,100,17.98,,,0.27,VWS V13.01,2013-07-12 22:38:00,
2013-07-12 18:43:00,69.6,69.6,30.08,ESE,118,5.5,40.1,100,17.99,,,0.28,VWS V13.01,2013-07-12 22:43:00,
2013-07-12 18:49:00,69.3,69.3,30.08,ENE,76,0.7,40.1,100,18.01,,,0.30,VWS V13.01,2013-07-12 22:49:00,
2013-07-12 18:54:00,69.4,69.4,30.08,South,169,3.9,40.1,100,18.01,,,0.30,VWS V13.01,2013-07-12 22:54:00,
2013-07-12 18:59:00,69.5,69.5,30.07,ESE,108,3.4,40.1,100,18.01,,,0.30,VWS V13.01,2013-07-12 22:59:00,
2013-07-12 19:07:00,69.4,69.4,30.07,ESE,103,9.8,40.1,100,18.01,,,0.30,VWS V13.01,2013-07-12 23:07:00,
2013-07-12 19:12:00,69.2,69.2,30.07,East,93,1.1,40.1,100,18.01,,,0.30,VWS V13.01,2013-07-12 23:12:00,
2013-07-12 19:17:00,69.0,69.0,30.07,ESE,121,3.4,40.1,100,18.01,,,0.30,VWS V13.01,2013-07-12 23:17:00,
2013-07-12 19:22:00,69.0,69.0,30.07,East,96,5.2,40.1,100,18.01,,,0.30,VWS V13.01,2013-07-12 23:22:00,
2013-07-12 19:28:00,69.2,69.2,30.07,NE,55,3.9,40.1,100,18.01,,,0.30,VWS V13.01,2013-07-12 23:28:00,
2013-07-12 19:33:00,69.2,69.2,30.07,East,98,3.3,40.1,100,18.01,,,0.30,VWS V13.01,2013-07-12 23:33:00,
2013-07-12 19:38:00,69.5,69.5,30.07,ESE,105,6.8,40.1,100,18.01,,,0.30,VWS V13.01,2013-07-12 23:38:00,
2013-07-12 19:43:00,69.2,69.2,30.07,ESE,105,8.3,40.1,100,18.01,,,0.30,VWS V13.01,2013-07-12 23:43:00,
2013-07-12 19:49:00,69.2,69.2,30.07,NE,45,6.6,40.1,100,18.01,,,0.30,VWS V13.01,2013-07-12 23:49:00,
2013-07-12 19:54:00,69.0,69.0,30.07,ESE,122,0.0,40.1,100,18.01,,,0.30,VWS V13.01,2013-07-12 23:54:00,
2013-07-12 19:59:00,69.0,69.0,30.07,SE,131,4.5,40.1,100,18.01,,,0.30,VWS V13.01,2013-07-12 23:59:00,
2013-07-12 20:05:00,69.0,69.0,30.07,SE,132,7.8,40.1,100,18.01,,,0.30,VWS V13.01,2013-07-13 00:05:00,
2013-07-12 20:10:00,69.2,69.2,30.07,NE,45,0.6,40.1,100,18.01,,,0.30,VWS V13.01,2013-07-13 00:10:00,
2013-07-12 20:15:00,69.3,69.3,30.08,East,94,2.9,40.1,100,18.01,,,0.30,VWS V13.01,2013-07-13 00:15:00,
2013-07-12 20:20:00,69.2,69.2,30.08,East,91,2.5,40.1,100,18.01,,,0.30,VWS V13.01,2013-07-13 00:20:00,
2013-07-12 20:26:00,69.1,69.1,30.08,ENE,70,10.2,40.1,100,18.01,,,0.30,VWS V13.01,2013-07-13 00:26:00,
2013-07-12 20:31:00,69.3,69.3,30.08,East,94,7.3,40.1,100,18.01,,,0.30,VWS V13.01,2013-07-13 00:31:00,
2013-07-12 20:36:00,69.2,69.2,30.08,SE,132,3.9,40.1,100,18.01,,,0.30,VWS V13.01,2013-07-13 00:36:00,
2013-07-12 20:41:00,69.2,69.2,30.08,East,83,7.9,40.1,100,18.01,,,0.30,VWS V13.01,2013-07-13 00:41:00,
2013-07-12 20:47:00,69.0,69.0,30.08,East,98,5.7,40.1,100,18.01,,,0.30,VWS V13.01,2013-07-13 00:47:00,
2013-07-12 20:52:00,69.1,69.1,30.08,NNE,15,5.8,40.1,100,18.01,,,0.30,VWS V13.01,2013-07-13 00:52:00,
2013-07-12 20:57:00,69.0,69.0,30.09,ENE,59,2.2,40.1,100,18.01,,,0.30,VWS V13.01,2013-07-13 00:57:00,
2013-07-12 21:02:00,69.1,69.1,30.09,East,80,5.3,40.1,100,18.01,,,0.30,VWS V13.01,2013-07-13 01:02:00,
2013-07-12 21:08:00,69.2,69.2,30.09,ENE,58,0.8,40.1,100,18.01,,,0.30,VWS V13.01,2013-07-13 01:08:00,
2013-07-12 21:13:00,69.0,69.0,30.09,ENE,63,2.2,40.1,100,18.01,,,0.30,VWS V13.01,2013-07-13 01:13:00,
2013-07-12 21:18:00,69.2,69.2,30.09,ESE,117,12.4,40.1,100,18.01,,,0.30,VWS V13.01,2013-07-13 01:18:00,
2013-07-12 21:23:00,69.1,69.1,30.09,SE,129,7.3,40.1,100,18.01,,,0.30,VWS V13.01,2013-07-13 01:23:00,
2013-07-12 21:28:00,68.9,68.9,30.09,SE,143,4.1,40.1,100,18.01,,,0.30,VWS V13.01,2013-07-13 01:28:00,
2013-07-12 21:33:00,69.2,69.2,30.10,ESE,105,11.2,40.1,100,18.01,,,0.30,VWS V13.01,2013-07-13 01:33:00,
2013-07-12 21:39:00,69.0,69.0,30.09,SSE,162,8.8,40.1,100,18.01,,,0.30,VWS V13.01,2013-07-13 01:39:00,
2013-07-12 21:44:00,69.0,69.0,30.09,SSE,152,8.4,40.1,100,18.01,,,0.30,VWS V13.01,2013-07-13 01:44:00,
2013-07-12 21:49:00,69.1,69.1,30.10,North,10,3.2,40.1,100,18.01,,,0.30,VWS V13.01,2013-07-13 01:49:00,
2013-07-12 21:54:00,69.0,69.0,30.10,East,93,8.5,40.1,100,18.01,,,0.30,VWS V13.01,2013-07-13 01:54:00,
2013-07-12 21:59:00,69.2,69.2,30.09,ENE,75,1.6,40.1,100,18.01,,,0.30,VWS V13.01,2013-07-13 01:59:00,
2013-07-12 22:04:00,69.3,69.3,30.09,NE,42,5.3,40.1,100,18.01,,,0.30,VWS V13.01,2013-07-13 02:04:00,
2013-07-12 22:10:00,69.3,69.3,30.09,ESE,104,8.1,40.1,100,18.01,,,0.30,VWS V13.01,2013-07-13 02:10:00,
2013-07-12 22:15:00,69.1,69.1,30.09,ENE,77,4.4,40.1,100,18.01,,,0.30,VWS V13.01,2013-07-13 02:15:00,
2013-07-12 22:20:00,69.5,69.5,30.09,NE,56,6.9,40.1,100,18.01,,,0.30,VWS V13.01,2013-07-13 02:20:00,
2013-07-12 22:26:00,69.3,69.3,30.09,ESE,111,2.7,40.1,100,18.01,,,0.30,VWS V13.01,2013-07-13 02:26:00,
2013-07-12 22:31:00,69.5,69.5,30.09,East,96,8.9,40.1,100,18.01,,,0.30,VWS V13.01,2013-07-13 02:31:00,
2013-07-12 22:36:00,69.5,69.5,30.09,NNE,14,2.3,40.1,100,18.01,,,0.30,VWS V13.01,2013-07-13 02:36:00,
2013-07-12 22:41:00,69.8,69.8,30.09,East,83,7.0,40.1,100,18.01,,,0.30,VWS V13.01,2013-07-13 02:41:00,
2013-07-12 22:46:00,69.9,69.9,30.09,East,79,4.4,40.1,100,18.01,,,0.30,VWS V13.01,2013-07-13 02:46:00,
2013-07-12 22:52:00,70.3,70.3,30.10,SSE,158,2.7,40.1,100,18.01,,,0.30,VWS V13.01,2013-07-13 02:52:00,
2013-07-12 22:57:00,70.0,70.0,30.10,ESE,111,6.2,40.1,100,18.01,,,0.30,VWS V13.01,2013-07-13 02:57:00,
2013-07-12 23:02:00,70.1,70.1,30.10,ENE,75,4.8,40.1,100,18.01,,,0.30,VWS V13.01,2013-07-13 03:02:00,
2013-07-12 23:07:00,70.0,70.0,30.10,SE,125,12.3,40.1,100,18.01,,,0.30,VWS V13.01,2013-07-13 03:07:00,
2013-07-12 23:12:00,70.1,70.1,30.10,ENE,59,0.0,40.1,100,18.01,,,0.30,VWS V13.01,2013-07-13 03:12:00,
2013-07-12 23:17:00,70.2,70.2,30.10,NE,38,9.3,40.1,100,18.01,,,0.30,VWS V13.01,2013-07-13 03:17:00,
2013-07-12 23:23:00,70.1,70.1,30.10,SE,129,5.8,40.1,100,18.01,,,0.30,VWS V13.01,2013-07-13 03:23:00,
2013-07-12 23:28:00,70.2,70.2,30.10,East,82,5.5,40.1,100,18.01,,,0.30,VWS V13.01,2013-07-13 03:28:00,
2013-07-12 23:33:00,70.5,70.5,30.10,SE,125,7.5,40.1,100,18.01,,,0.30,VWS V13.01,2013-07-13 03:33:00,
2013-07-12 23:38:00,70.1,70.1,30.10,ENE,68,7.8,40.1,100,18.01,,,0.30,VWS V13.01,2013-07-13 03:38:00,
2013-07-12 23:43:00,69.9,69.9,30.10,ENE,59,5.2,40.1,100,18.01,,,0.30,VWS V13.01,2013-07-13 03:43:00,
2013-07-12 23:48:00,70.3,70.3,30.10,SE,145,3.1,40.1,100,18.01,,,0.30,VWS V13.01,2013-07-13 03:48:00,
2013-07-12 23:53:00,70.4,70.4,30.10,East,96,6.3,40.1,100,18.01,,,0.30,VWS V13.01,2013-07-13 03:53:00,
2013-07-12 23:59:00,70.1,70.1,30.11,East,100,1.6,40.1,100,18.01,,,0.00,VWS V13.01,2013-07-13 03:59:00,